Flight Number: EUR2104 Duration: 1:15
Departure: Hamburg Fuhlsbuettel (EDDH) at 08:00 Distance: 324 Nm
Arrival: Munich Int'l (EDDM) at 09:15 Equipment: DHC8

Weather Information
Hamburg-Fuhlsbuettel, Germany (EDDH) 53-38N 010-00E 15M Nov 19, 2017 - 10:50 PM EST / 2017.11.20 0350 UTC
Wind: from the WSW (250 degrees) at 7 MPH (6 KT):0
Visibility: greater than 7 mile(s):0
Sky conditions: mostly cloudy Weather: light rain showers; Cumulonimbus clouds observed Temperature: 39 F (4 C) Dew Point: 37 F (3 C) Relative Humidity: 93% Pressure (altimeter): 29.91 in. Hg (1013 hPa)
ob: EDDH 200350Z 25006KT 9999 -SHRA FEW011CB SCT039 BKN060 04/03 Q1013 NOSIG cycle: 4
Sunrise: 07:01 Sunset: 15:10 (UTC)

Munchen, Germany (EDDM) 48-21N 011-47E Nov 19, 2017 - 10:50 PM EST / 2017.11.20 0350 UTC
Wind: from the W (260 degrees) at 14 MPH (12 KT):0
Visibility: greater than 7 mile(s):0 Temperature: 35 F (2 C)
Windchill: 26 F (-3 C):1 Dew Point: 30 F (-1 C) Relative Humidity: 80% Pressure (altimeter): 30.15 in. Hg (1021 hPa)
ob: EDDM 200350Z 26012KT CAVOK 02/M01 Q1021 NOSIG cycle: 4
Sunrise: 06:32 Sunset: 15:24 (UTC)

TAF:2017/11/19 18:27 TAF EDDM 191700Z 1918/2024 26013KT 9999 FEW014 BKN040 TEMPO 1918/2003 31015G25KT PROB30 TEMPO 1918/2003 2000 SHSNRA BKN014CB BECMG 2015/2018 23007KT TEMPO 2018/2024 RA BECMG 2021/2024 25015G25KT

Previous Pireps for this route
Date Aircraft Flight time Fuel used Landing rate On time
2012-08-12DHC81.1315660Yes
2014-12-24DHC81.327522-162No
2017-01-10B73701.247868-452Charter
(pireps marked green are flown by you)

Route map